McMinnville, OR (97128)

4:54 AM PST on December 05, 2016 (GMT -0800)
Saylor's Addition | | Change Station
Active Advisory: Winter Weather Advisory

Elev 154 ft 45.21 °N, 123.20 °W | Updated 14 seconds ago

Light Rain
Light Rain
35.4 °F
Feels Like 35 °F
N
0.0
Wind Variable Wind from NNW

Today
High -- | Low -- °F
--% Chance of Precip.
Yesterday
High -- | Low -- °F
Precip. -- in
Pressure 30.23 in
Visibility 9.0 miles
Clouds Scattered Clouds 2000 ft
Mostly Cloudy 2700 ft
Overcast 3700 ft
Windchill 35 °F
Dew Point 34 °F
Humidity 95%
Rainfall 0.00 in
Snow Depth Not available.
7:36 AM 4:30 PM
Waxing Crescent, 31% visible
SPECI KMMV 051219Z AUTO 00000KT 9SM -RA SCT020 BKN027 OVC037 03/02 A3023 RMK AO2 P0001 T00280017
Pressure 30.23 in
Visibility 9.0 miles
Clouds Scattered Clouds 2000 ft
Mostly Cloudy 2700 ft
Overcast 3700 ft
Windchill 35 °F
Dew Point 34 °F
Humidity 95%
Rainfall 0.00 in
Snow Depth Not available.
7:36 AM 4:30 PM
Waxing Crescent, 31% visible
SPECI KMMV 051219Z AUTO 00000KT 9SM -RA SCT020 BKN027 OVC037 03/02 A3023 RMK AO2 P0001 T00280017

10-Day Weather Forecast

Almanac

Astronomy

Dec. 05, 2016 Rise Set
Actual Time
Civil Twilight
Nautical Twilight
Astronomical Twilight
Moon
Length of Visible Light
Length of Day
Tomorrow will be .
, % of the Moon is Illuminated

Today's Extremes

State Highs State Lows

Community

WunderPhotos

Upload Photos

1,955,778 photos uploaded!

WunderBlog® & News

Nearby

Air Quality

  Air Quality AQ Index Pollutant
Not available.

Snow Depth

Station Depth Elevation

Earthquake Activity

City Distance Mag. Time & Date
Minimum magnitude displayed is 2.5.

Coastal Water Temperatures

Place Temperature

Stations

Nearby Weather Stations

Station Location Temp. Windchill Dew Point Humidity Wind Precip. Elev Updated Type
                   

Watches & Warnings

Winter Weather Advisory
Issued: 3:40 AM PST Dec. 5, 2016 – National Weather Service

... Winter Weather Advisory remains in effect for the central
Willamette Valley until 1 PM PST this afternoon...

A Winter Weather Advisory for snow remains in effect until 1 PM
PST this afternoon.

* Timing... snow showers will continue until early afternoon.

* Accumulation... up to 2 inches above 1000 feet. Any accumulations
below 1000 feet less than 1 inch.

* Impacts... the best chance for persistent snow will occur
during the morning commute. There is uncertainty whether snow
will stick to Road surfaces... but even falling snow may
result in travel delays or accidents. If you must drive
during this time... provide extra time for travel and
maintain space between vehicles.

Precautionary/preparedness actions...

A Winter Weather Advisory for snow means that periods of snow
will cause primarily travel difficulties. Be prepared for snow
covered roads and limited visibilities... and use caution while
driving.